Marion, VA (24354)

04:56 AM EDT die 27o April, anno 2017 (GMT -0400)
The Bank of Marion | | Change Station

Elev 2182 ft 36.83 °N, 81.52 °W | Updated 12 seconds ago

Serena
Serena
54.9 °F
Feels Like 54.9 °F
N
2.0
Ventus Variabilis Ventus from Magis Eurus quam Auster
Gusts 3.0 mph

Hodie
High -- | Low -- °F
--% Chance of Precip.
Yesterday
High -- | Low -- °F
Precip. -- in
Pressio 29.84 in
Visibilitas 10.0 milia passuum
Clouds Serena
Frigus in quo Ros apparet 52 °F
Umor 92%
Rainfall 0.00 in
Snow Depth Not available.
6:36 AM 8:11 PM
New, 1% visible
METAR KMKJ 270835Z AUTO 00000KT 10SM CLR 17/13 A2984 RMK AO2 LTG DSNT W T01680130
Pressio 29.84 in
Visibilitas 10.0 milia passuum
Clouds Serena
Frigus in quo Ros apparet 52 °F
Umor 92%
Rainfall 0.00 in
Snow Depth Not available.
6:36 AM 8:11 PM
New, 1% visible
METAR KMKJ 270835Z AUTO 00000KT 10SM CLR 17/13 A2984 RMK AO2 LTG DSNT W T01680130

Get Severe Weather Alerts

Thanks for signing up!

Be on the lookout for a verification email in your inbox.

You'll start receiving the daily forecast at 8 AM.

×

10-Day Weather Forecast

Almanac

Astronomy

Apr. 27, 2017 Rise Set
Actual Time
Civil Twilight
Nautical Twilight
Astronomical Twilight
Moon
Length Of Visible Light
Length of Day
Tomorrow will be .
, % of the Moon is Illuminated

Today's Extremes

State Highs State Lows

Community

WunderPhotos

WunderBlog® & News

Nearby

Air Quality

  Air Quality AQ Index Pollutant
Not available.

Snow Depth

Station Depth Elevation

Earthquake Activity

City Distance Mag. Time & Date
Minimum magnitude displayed is 2.5.

Coastal Water Temperatures

Locus Calor

Stations

Nearby Weather Stations

Station Location Temp Frigus Venti Frigus in quo Ros apparet Umor Ventus Precip. Elev Renovata Type
                   

Watches & Warnings

There are currently no watches in effect.